Wetterstation Vordersexau
Wetterdaten: Woche 06.08.18 - 12.08.18 (KW32)
Datum Zeit Temp. A. Feuchte A. Luftdruck Regen Wind Richtung Taupunkt Windchill Windben
06.08.2018 00:00 22,2 C 66 % 1014,9 hPa 0,0 l/m 0,0 km/h N-NO 15,5 C 22,2 C 0,0 km/h
06.08.2018 01:00 21,2 C 68 % 1014,5 hPa 0,0 l/m 0,0 km/h O-SO 15,1 C 21,2 C 0,0 km/h
06.08.2018 02:00 20,4 C 72 % 1014,3 hPa 0,0 l/m 0,0 km/h O-SO 15,2 C 20,4 C 0,0 km/h
06.08.2018 03:00 19,8 C 74 % 1013,9 hPa 0,0 l/m 0,0 km/h O-SO 15,0 C 19,8 C 0,0 km/h
06.08.2018 04:00 19,2 C 75 % 1013,8 hPa 0,0 l/m 0,0 km/h O-SO 14,7 C 19,2 C 0,0 km/h
06.08.2018 05:00 18,5 C 74 % 1013,9 hPa 0,0 l/m 0,0 km/h O-SO 13,8 C 18,5 C 0,0 km/h
06.08.2018 06:00 18,3 C 76 % 1013,9 hPa 0,0 l/m 0,0 km/h O-SO 14,0 C 18,3 C 0,0 km/h
06.08.2018 07:00 19,4 C 75 % 1014,1 hPa 0,0 l/m 0,0 km/h W-SW 14,8 C 19,4 C 0,0 km/h
06.08.2018 08:00 21,8 C 69 % 1014,4 hPa 0,0 l/m 0,0 km/h S-SW 15,9 C 21,8 C 0,0 km/h
06.08.2018 09:00 24,4 C 63 % 1014,1 hPa 0,0 l/m 0,0 km/h N 16,9 C 24,4 C 0,0 km/h
06.08.2018 10:00 25,7 C 56 % 1014,0 hPa 0,0 l/m 0,0 km/h N-NW 16,2 C 25,7 C 0,0 km/h
06.08.2018 11:00 28,8 C 50 % 1013,5 hPa 0,0 l/m 0,0 km/h SW 17,3 C 28,8 C 0,0 km/h
06.08.2018 12:00 30,6 C 45 % 1013,1 hPa 0,0 l/m 0,0 km/h N-NO 17,3 C 30,6 C 0,0 km/h
06.08.2018 13:00 31,9 C 42 % 1012,4 hPa 0,0 l/m 0,0 km/h N-NW 17,4 C 31,9 C 0,0 km/h
06.08.2018 14:00 32,8 C 41 % 1011,9 hPa 0,0 l/m 0,0 km/h S-SO 17,8 C 32,8 C 0,0 km/h
06.08.2018 15:00 34,1 C 39 % 1011,2 hPa 0,0 l/m 5,2 km/h SW 18,1 C 34,1 C 2,9 km/h
06.08.2018 16:00 35,1 C 32 % 1010,7 hPa 0,0 l/m 0,0 km/h W-SW 15,9 C 35,1 C 0,0 km/h
06.08.2018 17:00 35,3 C 34 % 1010,2 hPa 0,0 l/m 12,3 km/h N-NW 17,0 C 35,3 C 6,8 km/h
06.08.2018 18:00 35,5 C 33 % 1010,2 hPa 0,0 l/m 0,0 km/h N 16,7 C 35,5 C 0,0 km/h
06.08.2018 19:00 33,5 C 36 % 1010,0 hPa 0,0 l/m 0,0 km/h N 16,3 C 33,5 C 0,0 km/h
06.08.2018 20:00 30,8 C 44 % 1010,1 hPa 0,0 l/m 0,0 km/h N-NO 17,1 C 30,8 C 0,0 km/h
06.08.2018 21:00 28,1 C 50 % 1010,7 hPa 0,0 l/m 0,0 km/h N-NO 16,7 C 28,1 C 0,0 km/h
06.08.2018 22:00 27,0 C 54 % 1011,0 hPa 0,0 l/m 0,0 km/h SO 16,9 C 27,0 C 0,0 km/h
06.08.2018 23:00 25,9 C 58 % 1011,0 hPa 0,0 l/m 0,0 km/h O-SO 17,0 C 25,9 C 0,0 km/h
07.08.2018 00:00 25,3 C 59 % 1010,7 hPa 0,0 l/m 0,0 km/h O-NO 16,7 C 25,3 C 0,0 km/h
07.08.2018 01:00 24,4 C 63 % 1010,8 hPa 0,0 l/m 0,0 km/h O-NO 16,9 C 24,4 C 0,0 km/h
07.08.2018 02:00 23,4 C 65 % 1010,4 hPa 0,0 l/m 0,0 km/h O 16,4 C 23,4 C 0,0 km/h
07.08.2018 03:00 22,8 C 66 % 1010,1 hPa 0,0 l/m 0,0 km/h O-NO 16,1 C 22,8 C 0,0 km/h
07.08.2018 04:00 22,1 C 69 % 1010,1 hPa 0,0 l/m 0,0 km/h O 16,1 C 22,1 C 0,0 km/h
07.08.2018 05:00 21,6 C 70 % 1010,4 hPa 0,0 l/m 0,0 km/h O 15,9 C 21,6 C 0,0 km/h
07.08.2018 06:00 21,5 C 71 % 1010,3 hPa 0,0 l/m 0,0 km/h SO 16,0 C 21,5 C 0,0 km/h
07.08.2018 07:00 22,1 C 71 % 1010,5 hPa 0,0 l/m 0,0 km/h SO 16,6 C 22,1 C 0,0 km/h
07.08.2018 08:00 25,4 C 64 % 1010,6 hPa 0,0 l/m 0,0 km/h SO 18,1 C 25,4 C 0,0 km/h
07.08.2018 09:00 27,4 C 60 % 1010,8 hPa 0,0 l/m 0,0 km/h SO 18,9 C 27,4 C 0,0 km/h
07.08.2018 10:00 28,8 C 55 % 1010,8 hPa 0,0 l/m 0,0 km/h W-SW 18,8 C 28,8 C 0,0 km/h
07.08.2018 11:00 32,5 C 40 % 1010,4 hPa 0,0 l/m 11,7 km/h S-SW 17,1 C 32,4 C 6,5 km/h
07.08.2018 12:00 33,5 C 36 % 1009,6 hPa 0,0 l/m 36,3 km/h SW 16,3 C 33,5 C 20,2 km/h
07.08.2018 13:00 34,3 C 34 % 1008,9 hPa 0,0 l/m 24,6 km/h W-SW 16,1 C 34,3 C 13,7 km/h
07.08.2018 14:00 35,5 C 32 % 1008,7 hPa 0,0 l/m 5,2 km/h W-SW 16,2 C 35,5 C 2,9 km/h
07.08.2018 15:00 34,1 C 32 % 1008,6 hPa 0,0 l/m 20,7 km/h NO 15,0 C 34,1 C 11,5 km/h
07.08.2018 16:00 31,1 C 43 % 1008,9 hPa 0,0 l/m 0,0 km/h O-NO 17,0 C 31,1 C 0,0 km/h
07.08.2018 17:00 30,6 C 43 % 1009,2 hPa 0,0 l/m 0,0 km/h SO 16,6 C 30,6 C 0,0 km/h
07.08.2018 18:00 29,9 C 43 % 1008,7 hPa 0,0 l/m 11,7 km/h SO 15,9 C 29,5 C 6,5 km/h
07.08.2018 19:00 29,3 C 46 % 1007,7 hPa 0,0 l/m 0,0 km/h S-SO 16,5 C 29,3 C 0,0 km/h
07.08.2018 20:00 28,8 C 46 % 1007,5 hPa 0,0 l/m 0,0 km/h SO 16,0 C 28,8 C 0,0 km/h
07.08.2018 21:00 28,1 C 47 % 1008,4 hPa 0,0 l/m 0,0 km/h O-NO 15,7 C 28,1 C 0,0 km/h
07.08.2018 22:00 25,5 C 54 % 1008,9 hPa 0,0 l/m 0,0 km/h O-NO 15,5 C 25,5 C 0,0 km/h
07.08.2018 23:00 23,6 C 61 % 1008,7 hPa 0,0 l/m 0,0 km/h O-NO 15,6 C 23,6 C 0,0 km/h
08.08.2018 00:00 22,9 C 63 % 1008,4 hPa 0,0 l/m 0,0 km/h O-NO 15,5 C 22,9 C 0,0 km/h
08.08.2018 01:00 21,9 C 65 % 1007,9 hPa 0,0 l/m 0,0 km/h O-NO 15,0 C 21,9 C 0,0 km/h
08.08.2018 02:00 21,2 C 68 % 1008,0 hPa 0,0 l/m 0,0 km/h O-SO 15,1 C 21,2 C 0,0 km/h
08.08.2018 03:00 21,4 C 70 % 1009,1 hPa 0,0 l/m 0,0 km/h S 15,7 C 21,4 C 0,0 km/h
08.08.2018 04:00 24,8 C 63 % 1010,0 hPa 0,0 l/m 19,4 km/h S-SW 17,3 C 22,5 C 10,8 km/h
08.08.2018 05:00 24,3 C 65 % 1011,2 hPa 0,0 l/m 6,5 km/h SO 17,3 C 24,3 C 3,6 km/h
08.08.2018 06:00 24,0 C 65 % 1011,2 hPa 0,0 l/m 0,0 km/h O-NO 17,0 C 24,0 C 0,0 km/h
08.08.2018 07:00 23,3 C 70 % 1010,2 hPa 0,0 l/m 0,0 km/h S-SO 17,5 C 23,3 C 0,0 km/h
08.08.2018 08:00 25,2 C 63 % 1011,3 hPa 0,0 l/m 0,0 km/h W-SW 17,6 C 25,2 C 0,0 km/h
08.08.2018 09:00 26,8 C 57 % 1011,9 hPa 0,0 l/m 4,5 km/h W-SW 17,6 C 26,8 C 2,5 km/h
08.08.2018 10:00 28,4 C 52 % 1012,1 hPa 0,0 l/m 22,7 km/h W-SW 17,6 C 26,9 C 12,6 km/h
08.08.2018 11:00 29,9 C 48 % 1011,9 hPa 0,0 l/m 3,9 km/h SW 17,7 C 29,9 C 2,2 km/h
08.08.2018 12:00 29,8 C 46 % 1012,3 hPa 0,0 l/m 25,3 km/h SW 16,9 C 28,7 C 14,0 km/h
08.08.2018 13:00 31,2 C 44 % 1011,8 hPa 0,0 l/m 0,0 km/h NW 17,5 C 31,2 C 0,0 km/h
08.08.2018 14:00 30,9 C 43 % 1011,9 hPa 0,0 l/m 10,4 km/h W-NW 16,8 C 30,7 C 5,8 km/h
08.08.2018 15:00 31,3 C 42 % 1011,3 hPa 0,0 l/m 0,0 km/h S 16,8 C 31,3 C 0,0 km/h
08.08.2018 16:00 31,6 C 40 % 1011,0 hPa 0,0 l/m 17,5 km/h NW 16,3 C 31,2 C 9,7 km/h
08.08.2018 17:00 31,6 C 44 % 1010,9 hPa 0,0 l/m 0,0 km/h W-SW 17,8 C 31,6 C 0,0 km/h
08.08.2018 18:00 30,9 C 43 % 1010,8 hPa 0,0 l/m 0,0 km/h W 16,8 C 30,9 C 0,0 km/h
08.08.2018 19:00 30,9 C 45 % 1011,1 hPa 0,0 l/m 0,0 km/h SO 17,6 C 30,9 C 0,0 km/h
08.08.2018 20:00 20,4 C 74 % 1012,0 hPa 8,8 l/m 0,0 km/h O-SO 15,6 C 20,4 C 0,0 km/h
08.08.2018 21:00 19,6 C 80 % 1012,8 hPa 0,0 l/m 0,0 km/h O-NO 16,1 C 19,6 C 0,0 km/h
08.08.2018 22:00 19,1 C 81 % 1012,5 hPa 0,0 l/m 0,0 km/h SO 15,8 C 19,1 C 0,0 km/h
08.08.2018 23:00 19,3 C 81 % 1012,4 hPa 0,0 l/m 0,0 km/h SO 16,0 C 19,3 C 0,0 km/h
09.08.2018 00:00 19,1 C 81 % 1012,1 hPa 0,0 l/m 0,0 km/h O-NO 15,8 C 19,1 C 0,0 km/h
09.08.2018 01:00 18,9 C 81 % 1011,8 hPa 0,0 l/m 0,0 km/h O-NO 15,6 C 18,9 C 0,0 km/h
09.08.2018 02:00 18,8 C 81 % 1011,6 hPa 0,0 l/m 0,0 km/h O-NO 15,5 C 18,8 C 0,0 km/h
09.08.2018 03:00 18,4 C 81 % 1011,3 hPa 0,0 l/m 0,0 km/h O-NO 15,1 C 18,4 C 0,0 km/h
09.08.2018 04:00 18,2 C 81 % 1011,8 hPa 0,0 l/m 0,0 km/h O-NO 14,9 C 18,2 C 0,0 km/h
09.08.2018 05:00 17,8 C 79 % 1010,7 hPa 0,0 l/m 0,0 km/h SO 14,1 C 17,8 C 0,0 km/h
09.08.2018 06:00 18,6 C 81 % 1010,5 hPa 0,0 l/m 0,0 km/h NW 15,3 C 18,6 C 0,0 km/h
09.08.2018 07:00 19,2 C 81 % 1010,2 hPa 0,0 l/m 0,0 km/h W-NW 15,9 C 19,2 C 0,0 km/h
09.08.2018 08:00 21,1 C 82 % 1010,3 hPa 0,0 l/m 0,0 km/h S-SO 17,9 C 21,1 C 0,0 km/h
09.08.2018 09:00 23,1 C 78 % 1009,9 hPa 0,0 l/m 0,0 km/h NW 19,0 C 23,1 C 0,0 km/h
09.08.2018 10:00 25,1 C 69 % 1010,0 hPa 0,0 l/m 0,0 km/h SO 19,0 C 25,1 C 0,0 km/h
09.08.2018 11:00 27,8 C 61 % 1009,4 hPa 0,0 l/m 0,0 km/h SW 19,6 C 27,8 C 0,0 km/h
09.08.2018 12:00 30,1 C 53 % 1008,8 hPa 0,0 l/m 13,0 km/h W-SW 19,4 C 29,6 C 7,2 km/h
09.08.2018 13:00 30,1 C 48 % 1009,9 hPa 0,0 l/m 24,0 km/h W-SW 17,9 C 29,1 C 13,3 km/h
09.08.2018 14:00 23,8 C 66 % 1012,6 hPa 0,0 l/m 22,0 km/h W-SW 17,1 C 20,9 C 12,2 km/h
09.08.2018 15:00 26,1 C 55 % 1012,4 hPa 0,0 l/m 5,8 km/h S-SW 16,3 C 26,1 C 3,2 km/h
09.08.2018 16:00 25,8 C 54 % 1012,9 hPa 0,0 l/m 20,7 km/h S-SO 15,8 C 23,6 C 11,5 km/h
09.08.2018 17:00 23,9 C 59 % 1012,1 hPa 0,0 l/m 0,0 km/h W-SW 15,4 C 23,9 C 0,0 km/h
09.08.2018 18:00 24,5 C 58 % 1013,2 hPa 0,0 l/m 19,4 km/h W-SW 15,7 C 22,1 C 10,8 km/h
09.08.2018 19:00 23,6 C 59 % 1014,2 hPa 0,0 l/m 24,0 km/h S-SW 15,1 C 20,4 C 13,3 km/h
09.08.2018 20:00 22,7 C 62 % 1014,8 hPa 0,0 l/m 19,4 km/h W 15,0 C 19,8 C 10,8 km/h
09.08.2018 21:00 22,3 C 63 % 1015,4 hPa 0,0 l/m 22,7 km/h SW 14,9 C 18,8 C 12,6 km/h
09.08.2018 22:00 21,6 C 66 % 1015,6 hPa 0,0 l/m 20,1 km/h S-SW 15,0 C 18,3 C 11,2 km/h
09.08.2018 23:00 21,5 C 67 % 1016,4 hPa 0,0 l/m 21,4 km/h N-NW 15,1 C 17,9 C 11,9 km/h
10.08.2018 00:00 18,9 C 78 % 1017,9 hPa 0,5 l/m 12,3 km/h SW 15,0 C 16,7 C 6,8 km/h
10.08.2018 01:00 18,1 C 81 % 1018,6 hPa 0,5 l/m 7,8 km/h W-SW 14,8 C 17,4 C 4,3 km/h
10.08.2018 02:00 17,4 C 82 % 1019,3 hPa 0,0 l/m 0,0 km/h NW 14,3 C 17,4 C 0,0 km/h
10.08.2018 03:00 16,8 C 80 % 1019,9 hPa 0,0 l/m 0,0 km/h NW 13,3 C 16,8 C 0,0 km/h
10.08.2018 04:00 15,8 C 81 % 1020,1 hPa 0,0 l/m 0,0 km/h N-NO 12,5 C 15,8 C 0,0 km/h
10.08.2018 05:00 14,8 C 82 % 1020,6 hPa 0,0 l/m 0,0 km/h N-NO 11,8 C 14,8 C 0,0 km/h
10.08.2018 06:00 14,4 C 83 % 1021,6 hPa 0,0 l/m 0,0 km/h N-NO 11,5 C 14,4 C 0,0 km/h
10.08.2018 07:00 15,1 C 83 % 1022,2 hPa 0,0 l/m 0,0 km/h SO 12,2 C 15,1 C 0,0 km/h
10.08.2018 08:00 16,9 C 82 % 1022,2 hPa 0,0 l/m 0,0 km/h W-NW 13,8 C 16,9 C 0,0 km/h
10.08.2018 09:00 18,1 C 73 % 1022,2 hPa 0,0 l/m 0,0 km/h S-SW 13,2 C 18,1 C 0,0 km/h
10.08.2018 10:00 19,6 C 67 % 1022,1 hPa 0,0 l/m 0,0 km/h W-SW 13,3 C 19,6 C 0,0 km/h
10.08.2018 11:00 21,2 C 58 % 1021,9 hPa 0,0 l/m 16,8 km/h NW 12,6 C 18,3 C 9,4 km/h
10.08.2018 12:00 22,8 C 50 % 1021,5 hPa 0,0 l/m 0,0 km/h SO 11,8 C 22,8 C 0,0 km/h
10.08.2018 13:00 23,9 C 46 % 1021,1 hPa 0,0 l/m 8,4 km/h W-SW 11,6 C 23,3 C 4,7 km/h
10.08.2018 14:00 24,8 C 40 % 1020,6 hPa 0,0 l/m 5,2 km/h S 10,3 C 24,8 C 2,9 km/h
10.08.2018 15:00 25,6 C 38 % 1020,3 hPa 0,0 l/m 16,2 km/h W 10,2 C 23,9 C 9,0 km/h
10.08.2018 16:00 26,2 C 35 % 1019,8 hPa 0,0 l/m 23,3 km/h W-SW 9,5 C 23,9 C 13,0 km/h
10.08.2018 17:00 26,5 C 33 % 1019,4 hPa 0,0 l/m 0,0 km/h W-SW 8,9 C 26,5 C 0,0 km/h
10.08.2018 18:00 26,5 C 32 % 1019,2 hPa 0,0 l/m 15,6 km/h W-SW 8,4 C 25,1 C 8,6 km/h
10.08.2018 19:00 24,4 C 36 % 1019,2 hPa 0,0 l/m 0,0 km/h W-SW 8,4 C 24,4 C 0,0 km/h
10.08.2018 20:00 22,2 C 41 % 1019,7 hPa 0,0 l/m 0,0 km/h NO 8,3 C 22,2 C 0,0 km/h
10.08.2018 21:00 19,5 C 52 % 1020,1 hPa 0,0 l/m 0,0 km/h NO 9,4 C 19,5 C 0,0 km/h
10.08.2018 22:00 17,8 C 59 % 1020,5 hPa 0,0 l/m 0,0 km/h NO 9,7 C 17,8 C 0,0 km/h
10.08.2018 23:00 17,0 C 61 % 1020,8 hPa 0,0 l/m 0,0 km/h O-SO 9,4 C 17,0 C 0,0 km/h
11.08.2018 00:00 16,0 C 65 % 1021,0 hPa 0,0 l/m 0,0 km/h O-SO 9,4 C 16,0 C 0,0 km/h
11.08.2018 01:00 15,3 C 70 % 1021,1 hPa 0,0 l/m 0,0 km/h O-SO 9,9 C 15,3 C 0,0 km/h
11.08.2018 02:00 14,8 C 71 % 1021,1 hPa 0,0 l/m 0,0 km/h O-SO 9,6 C 14,8 C 0,0 km/h
11.08.2018 03:00 13,9 C 74 % 1021,1 hPa 0,0 l/m 0,0 km/h O-SO 9,3 C 13,9 C 0,0 km/h
11.08.2018 04:00 13,4 C 75 % 1021,1 hPa 0,0 l/m 0,0 km/h O-SO 9,1 C 13,4 C 0,0 km/h
11.08.2018 05:00 12,6 C 77 % 1021,6 hPa 0,0 l/m 0,0 km/h O-SO 8,7 C 12,6 C 0,0 km/h
11.08.2018 06:00 12,8 C 78 % 1022,0 hPa 0,0 l/m 0,0 km/h O-SO 9,1 C 12,8 C 0,0 km/h
11.08.2018 07:00 14,4 C 77 % 1022,2 hPa 0,0 l/m 0,0 km/h SO 10,4 C 14,4 C 0,0 km/h
11.08.2018 08:00 17,7 C 69 % 1022,3 hPa 0,0 l/m 0,0 km/h W-SW 11,9 C 17,7 C 0,0 km/h
11.08.2018 09:00 19,8 C 59 % 1022,1 hPa 0,0 l/m 5,8 km/h W-SW 11,6 C 19,8 C 3,2 km/h
11.08.2018 10:00 21,4 C 51 % 1022,2 hPa 0,0 l/m 9,7 km/h W-NW 10,8 C 20,3 C 5,4 km/h
11.08.2018 11:00 22,9 C 47 % 1021,7 hPa 0,0 l/m 0,0 km/h W-SW 11,0 C 22,9 C 0,0 km/h
11.08.2018 12:00 23,6 C 43 % 1021,3 hPa 0,0 l/m 0,6 km/h W-SW 10,3 C 23,6 C 0,4 km/h
11.08.2018 13:00 24,8 C 41 % 1020,7 hPa 0,0 l/m 0,0 km/h NW 10,6 C 24,8 C 0,0 km/h
11.08.2018 14:00 24,9 C 38 % 1020,3 hPa 0,0 l/m 0,0 km/h SW 9,6 C 24,9 C 0,0 km/h
11.08.2018 15:00 25,9 C 37 % 1019,7 hPa 0,0 l/m 27,2 km/h W-NW 10,1 C 23,2 C 15,1 km/h
11.08.2018 16:00 26,1 C 36 % 1019,5 hPa 0,0 l/m 5,8 km/h N-NO 9,8 C 26,1 C 3,2 km/h
11.08.2018 17:00 25,7 C 37 % 1019,0 hPa 0,0 l/m 0,0 km/h N-NW 9,9 C 25,7 C 0,0 km/h
11.08.2018 18:00 26,5 C 35 % 1018,8 hPa 0,0 l/m 0,0 km/h NW 9,8 C 26,5 C 0,0 km/h
11.08.2018 19:00 24,3 C 39 % 1018,7 hPa 0,0 l/m 0,0 km/h NW 9,4 C 24,3 C 0,0 km/h
11.08.2018 20:00 21,6 C 47 % 1018,7 hPa 0,0 l/m 0,0 km/h SO 9,8 C 21,6 C 0,0 km/h
11.08.2018 21:00 19,1 C 53 % 1019,1 hPa 0,0 l/m 0,0 km/h SO 9,3 C 19,1 C 0,0 km/h
11.08.2018 22:00 17,8 C 57 % 1019,2 hPa 0,0 l/m 0,0 km/h SO 9,2 C 17,8 C 0,0 km/h
11.08.2018 23:00 16,5 C 62 % 1019,3 hPa 0,0 l/m 0,0 km/h SO 9,2 C 16,5 C 0,0 km/h
12.08.2018 00:00 15,6 C 65 % 1018,7 hPa 0,0 l/m 0,0 km/h O-SO 9,0 C 15,6 C 0,0 km/h
12.08.2018 01:00 14,2 C 68 % 1018,2 hPa 0,0 l/m 0,0 km/h O 8,4 C 14,2 C 0,0 km/h
12.08.2018 02:00 14,1 C 69 % 1017,8 hPa 0,0 l/m 0,0 km/h O 8,5 C 14,1 C 0,0 km/h
12.08.2018 03:00 13,1 C 72 % 1017,3 hPa 0,0 l/m 0,0 km/h O-NO 8,2 C 13,1 C 0,0 km/h
12.08.2018 04:00 12,6 C 72 % 1016,7 hPa 0,0 l/m 0,0 km/h O-NO 7,7 C 12,6 C 0,0 km/h
12.08.2018 05:00 11,6 C 75 % 1016,5 hPa 0,0 l/m 0,0 km/h O-NO 7,3 C 11,6 C 0,0 km/h
12.08.2018 06:00 11,1 C 78 % 1016,3 hPa 0,0 l/m 0,0 km/h O-NO 7,4 C 11,1 C 0,0 km/h
12.08.2018 07:00 12,6 C 78 % 1015,8 hPa 0,0 l/m 0,0 km/h O-NO 8,9 C 12,6 C 0,0 km/h
12.08.2018 08:00 16,1 C 70 % 1015,6 hPa 0,0 l/m 0,0 km/h SW 10,6 C 16,1 C 0,0 km/h
12.08.2018 09:00 18,2 C 62 % 1015,2 hPa 0,0 l/m 0,0 km/h NW 10,8 C 18,2 C 0,0 km/h
12.08.2018 10:00 20,9 C 54 % 1015,2 hPa 0,0 l/m 0,0 km/h S 11,2 C 20,9 C 0,0 km/h
12.08.2018 11:00 23,4 C 48 % 1014,7 hPa 0,0 l/m 0,0 km/h NW 11,8 C 23,4 C 0,0 km/h
12.08.2018 12:00 25,6 C 44 % 1014,0 hPa 0,0 l/m 13,0 km/h W-NW 12,4 C 24,3 C 7,2 km/h
12.08.2018 13:00 27,1 C 40 % 1013,2 hPa 0,0 l/m 3,9 km/h W-SW 12,3 C 27,1 C 2,2 km/h
12.08.2018 14:00 28,5 C 36 % 1012,4 hPa 0,0 l/m 0,0 km/h S-SW 12,0 C 28,5 C 0,0 km/h
12.08.2018 15:00 29,6 C 28 % 1011,6 hPa 0,0 l/m 14,3 km/h W 9,1 C 28,9 C 7,9 km/h
12.08.2018 16:00 30,4 C 29 % 1010,7 hPa 0,0 l/m 0,0 km/h W-SW 10,3 C 30,4 C 0,0 km/h
12.08.2018 17:00 31,0 C 29 % 1010,0 hPa 0,0 l/m 8,4 km/h W 10,9 C 30,9 C 4,7 km/h
12.08.2018 18:00 31,3 C 29 % 1009,5 hPa 0,0 l/m 9,7 km/h SW 11,1 C 31,1 C 5,4 km/h
12.08.2018 19:00 29,5 C 32 % 1008,9 hPa 0,0 l/m 0,0 km/h S-SW 11,0 C 29,5 C 0,0 km/h
12.08.2018 20:00 27,1 C 37 % 1009,2 hPa 0,0 l/m 0,0 km/h O-SO 11,1 C 27,1 C 0,0 km/h
12.08.2018 21:00 22,9 C 48 % 1009,1 hPa 0,0 l/m 0,0 km/h SO 11,3 C 22,9 C 0,0 km/h
12.08.2018 22:00 21,3 C 52 % 1009,2 hPa 0,0 l/m 0,0 km/h O-SO 11,0 C 21,3 C 0,0 km/h
12.08.2018 23:00 20,1 C 55 % 1009,2 hPa 0,0 l/m 0,0 km/h SO 10,8 C 20,1 C 0,0 km/h
Min-Datum _ 12.08.18 12.08.18 07.08.18 - 06.08.18 - 12.08.18 12.08.18 06.08.18
_ Min-Zeit 06:53 15:53 20:53 - 00:53 - 05:53 06:53 00:53
Minimum _ 11,1 C 28 % 1007,5 hPa - 0,0 km/h - 7,3 C 11,1 C 0,0 km/h
Max-Datum _ 06.08.18 10.08.18 11.08.18 08.08.18 07.08.18 - 09.08.18 06.08.18 07.08.18
_ Max-Zeit 18:53 06:53 08:53 20:53 12:53 - 11:53 18:53 12:53
Maximum _ 35,5 C 83 % 1022,3 hPa 8,8 l/m 36,3 km/h
SW
- 19,6 C 35,5 C 20,2 km/h
SW
Durchschnitt _ 23,4 C 58 % 1014,2 hPa #9,8 l/m 3,9 km/h W-SW 13,9 C 23,1 C 2,2 km/h
www.sexauwetter.de